createdAt,value
2023-03-15T00:01:40.509Z,57.10
2023-03-15T00:04:07.210Z,57.42
2023-03-15T00:06:34.591Z,55.71
2023-03-15T00:09:02.059Z,55.82
2023-03-15T00:11:32.574Z,55.16
2023-03-15T00:13:59.480Z,57.86
2023-03-15T00:16:27.040Z,56.42
2023-03-15T00:18:54.796Z,57.21
2023-03-15T00:21:21.692Z,56.45
2023-03-15T00:23:48.571Z,57.35
2023-03-15T00:26:15.656Z,58.25
2023-03-15T00:28:42.193Z,58.23
2023-03-15T00:31:15.483Z,57.10
2023-03-15T00:33:42.836Z,58.76
2023-03-15T00:36:11.512Z,58.04
2023-03-15T00:38:39.669Z,60.04
2023-03-15T00:41:12.038Z,58.70
2023-03-15T00:43:38.928Z,56.88
2023-03-15T00:46:06.285Z,60.29
2023-03-15T00:48:35.097Z,59.64
2023-03-15T00:51:03.639Z,59.25
2023-03-15T00:53:30.329Z,56.94
2023-03-15T00:55:57.122Z,60.15
2023-03-15T00:58:25.911Z,58.91
2023-03-15T01:00:53.610Z,59.51
2023-03-15T01:03:20.824Z,60.00
2023-03-15T01:05:47.240Z,56.78
2023-03-15T01:08:13.656Z,57.47
2023-03-15T01:10:40.206Z,58.11
2023-03-15T01:13:07.280Z,57.52
2023-03-15T01:15:33.678Z,57.26
2023-03-15T01:18:00.112Z,57.53
2023-03-15T01:20:26.573Z,56.20
2023-03-15T01:22:53.121Z,56.75
2023-03-15T01:25:19.655Z,58.56
2023-03-15T01:27:46.190Z,58.52
2023-03-15T01:30:12.956Z,59.07
2023-03-15T01:32:39.416Z,59.38
2023-03-15T01:35:06.519Z,59.91
2023-03-15T01:37:34.504Z,59.20
2023-03-15T01:40:01.095Z,57.85
2023-03-15T01:42:27.603Z,58.75
2023-03-15T01:44:57.836Z,60.22
2023-03-15T01:47:27.361Z,58.18
2023-03-15T01:50:05.492Z,58.77
2023-03-15T01:52:36.207Z,58.99
2023-03-15T01:55:19.423Z,59.96
2023-03-15T01:57:56.055Z,58.25
2023-03-15T02:00:22.721Z,56.83
2023-03-15T02:02:55.304Z,58.00
2023-03-15T02:05:25.659Z,55.89
2023-03-15T02:07:54.588Z,57.43
2023-03-15T02:10:30.654Z,57.28
2023-03-15T02:12:58.371Z,57.19
2023-03-15T02:15:24.861Z,56.45
2023-03-15T02:17:51.936Z,55.58
2023-03-15T02:20:53.806Z,55.76
2023-03-15T02:23:22.262Z,54.38
2023-03-15T02:26:00.563Z,56.03
2023-03-15T02:28:27.826Z,57.46
2023-03-15T02:30:54.972Z,55.99
2023-03-15T02:33:24.137Z,57.10
2023-03-15T02:35:51.320Z,57.08
2023-03-15T02:38:18.738Z,56.34
2023-03-15T02:40:46.599Z,53.88
2023-03-15T02:43:20.238Z,53.79
2023-03-15T02:45:47.876Z,54.17
2023-03-15T02:48:14.801Z,56.36
2023-03-15T02:50:41.289Z,55.64
2023-03-15T02:53:08.125Z,55.14
2023-03-15T02:55:34.667Z,57.77
2023-03-15T02:58:02.319Z,59.40
2023-03-15T03:00:29.279Z,58.83
2023-03-15T03:02:55.796Z,59.52
2023-03-15T03:05:22.739Z,58.64
2023-03-15T03:07:50.431Z,57.60
2023-03-15T03:10:19.605Z,57.14
2023-03-15T03:12:46.725Z,58.51
2023-03-15T03:15:13.323Z,56.09
2023-03-15T03:17:39.788Z,55.63
2023-03-15T03:20:11.684Z,58.89
2023-03-15T03:22:38.456Z,57.14
2023-03-15T03:25:06.313Z,59.07
2023-03-15T03:27:36.662Z,58.95
2023-03-15T03:30:09.107Z,58.48
2023-03-15T03:32:35.830Z,58.54
2023-03-15T03:35:02.610Z,59.53
2023-03-15T03:37:30.970Z,58.67
2023-03-15T03:39:58.000Z,57.11
2023-03-15T03:42:24.901Z,58.49
2023-03-15T03:44:51.578Z,58.06
2023-03-15T03:47:18.045Z,59.15
2023-03-15T03:49:44.476Z,59.51
2023-03-15T03:52:11.098Z,56.27
2023-03-15T03:54:37.543Z,57.90
2023-03-15T03:57:04.395Z,58.21
2023-03-15T03:59:30.894Z,58.44
2023-03-15T04:01:57.331Z,57.15
2023-03-15T04:04:26.228Z,57.52
2023-03-15T04:06:54.566Z,58.90
2023-03-15T04:09:21.984Z,59.37
2023-03-15T04:11:48.448Z,59.08
2023-03-15T04:14:15.090Z,59.14
2023-03-15T04:16:41.751Z,60.14
2023-03-15T04:19:08.659Z,60.35
2023-03-15T04:21:35.198Z,60.33
2023-03-15T04:24:02.077Z,61.43
2023-03-15T04:26:29.425Z,60.80
2023-03-15T04:28:57.945Z,59.63
2023-03-15T04:31:27.254Z,60.37
2023-03-15T04:33:55.074Z,62.12
2023-03-15T04:36:23.330Z,62.07
2023-03-15T04:38:50.636Z,61.96
2023-03-15T04:41:18.360Z,61.70
2023-03-15T04:43:44.899Z,61.82
2023-03-15T04:46:12.067Z,61.46
2023-03-15T04:48:38.569Z,62.09
2023-03-15T04:51:05.189Z,65.09
2023-03-15T04:53:31.763Z,64.38
2023-03-15T04:55:58.204Z,65.37
2023-03-15T04:58:24.649Z,62.87
2023-03-15T05:00:53.933Z,66.28
2023-03-15T05:03:20.532Z,67.05
2023-03-15T05:05:46.941Z,66.03
2023-03-15T05:08:13.433Z,66.75
2023-03-15T05:10:39.933Z,66.59
2023-03-15T05:13:06.737Z,68.17
2023-03-15T05:15:33.263Z,67.72
2023-03-15T05:17:59.852Z,68.21
2023-03-15T05:20:26.354Z,68.15
2023-03-15T05:22:55.659Z,66.20
2023-03-15T05:25:22.290Z,67.09
2023-03-15T05:27:48.768Z,67.47
2023-03-15T05:30:18.038Z,66.61
2023-03-15T05:32:44.896Z,67.87
2023-03-15T05:35:13.003Z,67.91
2023-03-15T05:37:39.616Z,67.83
2023-03-15T05:40:09.752Z,69.07
2023-03-15T05:42:36.246Z,69.84
2023-03-15T05:45:03.037Z,69.63
2023-03-15T05:47:29.485Z,70.82
2023-03-15T05:49:55.896Z,70.37
2023-03-15T05:52:22.585Z,70.23
2023-03-15T05:54:48.983Z,69.94
2023-03-15T05:57:15.431Z,68.56
2023-03-15T05:59:41.959Z,67.85
2023-03-15T06:02:08.425Z,66.84
2023-03-15T06:04:36.368Z,67.65
2023-03-15T06:07:02.931Z,68.46
2023-03-15T06:10:04.788Z,67.83
2023-03-15T06:12:31.350Z,68.99
2023-03-15T06:14:57.777Z,68.12
2023-03-15T06:20:27.859Z,68.31
2023-03-15T06:22:54.290Z,69.66
2023-03-15T06:25:20.743Z,68.91
2023-03-15T06:27:47.156Z,66.52
2023-03-15T06:30:16.597Z,66.52
2023-03-15T06:32:43.445Z,67.52
2023-03-15T06:35:10.046Z,67.88
2023-03-15T06:37:36.426Z,67.63
2023-03-15T06:40:12.923Z,66.34
2023-03-15T06:42:41.640Z,66.76
2023-03-15T06:45:09.850Z,67.58
2023-03-15T06:47:36.304Z,67.05
2023-03-15T06:50:03.943Z,68.45
2023-03-15T06:52:30.428Z,69.61
2023-03-15T06:54:56.944Z,69.58
2023-03-15T06:57:23.478Z,67.76
2023-03-15T06:59:50.556Z,68.53
2023-03-15T07:02:18.908Z,67.68
2023-03-15T07:04:45.429Z,67.75
2023-03-15T07:07:12.888Z,65.53
2023-03-15T07:09:40.197Z,64.82
2023-03-15T07:14:49.512Z,66.85
2023-03-15T07:17:16.178Z,64.81
2023-03-15T07:19:55.527Z,65.29
2023-03-15T07:22:22.982Z,65.96
2023-03-15T07:24:49.528Z,67.97
2023-03-15T07:27:18.826Z,64.41
2023-03-15T07:29:45.709Z,65.87
2023-03-15T07:32:12.336Z,63.36
2023-03-15T07:34:38.849Z,64.39
2023-03-15T07:37:05.305Z,65.54
2023-03-15T07:39:32.591Z,65.21
2023-03-15T07:41:59.649Z,66.98
2023-03-15T07:44:29.339Z,65.04
2023-03-15T07:46:58.434Z,62.05
2023-03-15T07:49:47.184Z,61.66
2023-03-15T07:52:13.602Z,64.58
2023-03-15T07:54:40.641Z,64.36
2023-03-15T07:57:07.326Z,65.37
2023-03-15T07:59:33.807Z,63.32
2023-03-15T08:02:02.856Z,64.91
2023-03-15T08:04:29.661Z,63.16
2023-03-15T08:06:56.738Z,63.46
2023-03-15T08:09:25.496Z,60.60
2023-03-15T08:11:52.006Z,62.05
2023-03-15T08:14:18.465Z,61.21
2023-03-15T08:16:44.942Z,60.65
2023-03-15T08:19:11.390Z,60.13
2023-03-15T08:21:37.866Z,61.65
2023-03-15T08:24:04.429Z,59.63
2023-03-15T08:26:30.849Z,59.24
2023-03-15T08:29:18.917Z,58.52
2023-03-15T08:31:45.430Z,55.56
2023-03-15T08:34:12.162Z,54.82
2023-03-15T08:36:38.745Z,58.71
2023-03-15T08:39:05.736Z,56.65
2023-03-15T08:41:32.738Z,57.76
2023-03-15T08:43:59.276Z,57.33
2023-03-15T08:46:26.858Z,57.34
2023-03-15T08:48:53.527Z,57.04
2023-03-15T08:51:21.621Z,57.85
2023-03-15T08:53:53.859Z,55.12
2023-03-15T08:56:20.928Z,51.78
2023-03-15T08:59:05.798Z,53.32
2023-03-15T09:01:32.202Z,53.79
2023-03-15T09:03:58.786Z,53.02
2023-03-15T09:06:25.380Z,54.67
2023-03-15T09:08:53.744Z,56.14
2023-03-15T09:11:21.002Z,55.26
2023-03-15T09:13:47.694Z,53.79
2023-03-15T09:16:14.862Z,51.01
2023-03-15T09:18:46.922Z,51.50
2023-03-15T09:21:13.349Z,53.10
2023-03-15T09:23:39.826Z,51.00
2023-03-15T09:26:06.292Z,51.97
2023-03-15T09:28:41.725Z,53.64
2023-03-15T09:31:08.347Z,53.84
2023-03-15T09:33:34.775Z,53.51
2023-03-15T09:36:01.280Z,55.06
2023-03-15T09:38:28.061Z,55.05
2023-03-15T09:41:10.221Z,53.55
2023-03-15T09:43:48.676Z,53.70
2023-03-15T09:46:54.187Z,53.18
2023-03-15T09:49:32.414Z,51.32
2023-03-15T09:52:06.202Z,50.10
2023-03-15T09:54:46.138Z,49.69
2023-03-15T09:57:18.656Z,49.72
2023-03-15T09:59:49.173Z,49.99
2023-03-15T10:02:25.311Z,48.28
2023-03-15T10:05:20.191Z,48.94
2023-03-15T10:07:46.915Z,48.15
2023-03-15T10:10:24.403Z,49.83
2023-03-15T10:13:05.634Z,49.40
2023-03-15T10:15:48.177Z,49.23
2023-03-15T10:18:33.248Z,48.98
2023-03-15T10:21:27.467Z,47.08
2023-03-15T10:23:54.844Z,45.89
2023-03-15T10:26:27.444Z,46.22
2023-03-15T10:28:53.913Z,44.62
2023-03-15T10:31:36.848Z,43.29
2023-03-15T10:34:11.480Z,44.43
2023-03-15T10:36:44.100Z,44.09
2023-03-15T10:39:12.419Z,44.00
2023-03-15T10:41:41.256Z,44.26
2023-03-15T10:44:27.464Z,45.50
2023-03-15T10:47:21.418Z,44.33
2023-03-15T10:49:50.227Z,43.04
2023-03-15T10:52:26.959Z,44.91
2023-03-15T10:54:58.742Z,44.07
2023-03-15T10:57:37.015Z,42.90
2023-03-15T11:00:32.467Z,41.18
2023-03-15T11:03:03.910Z,41.75
2023-03-15T11:05:42.745Z,42.43
2023-03-15T11:08:15.395Z,43.69
2023-03-15T11:11:26.781Z,46.07
2023-03-15T11:14:01.034Z,47.82
2023-03-15T11:16:34.765Z,50.09
2023-03-15T11:19:03.489Z,50.01
2023-03-15T11:21:35.415Z,48.44
2023-03-15T11:24:04.335Z,50.28
2023-03-15T11:26:36.271Z,50.17
2023-03-15T11:29:20.538Z,52.26
2023-03-15T11:31:47.301Z,47.86
2023-03-15T11:34:22.376Z,48.71
2023-03-15T11:37:07.136Z,46.11
2023-03-15T11:39:45.344Z,47.28
2023-03-15T11:42:22.146Z,48.86
2023-03-15T11:44:55.020Z,48.79
2023-03-15T11:47:47.444Z,47.77
2023-03-15T11:50:15.434Z,46.90
2023-03-15T11:52:43.047Z,47.58
2023-03-15T11:55:24.647Z,48.05
2023-03-15T11:57:52.086Z,49.68
2023-03-15T12:00:26.763Z,47.81
2023-03-15T12:02:53.289Z,45.82
2023-03-15T12:05:41.654Z,46.78
2023-03-15T12:08:20.258Z,45.79
2023-03-15T12:10:49.573Z,45.88
2023-03-15T12:13:28.407Z,45.44
2023-03-15T12:15:55.872Z,43.30
2023-03-15T12:18:31.343Z,41.76
2023-03-15T12:21:18.877Z,43.29
2023-03-15T12:24:08.683Z,40.45
2023-03-15T12:26:45.396Z,39.61
2023-03-15T12:29:25.626Z,44.05
2023-03-15T12:31:53.829Z,42.01
2023-03-15T12:34:27.841Z,42.59
2023-03-15T12:36:59.509Z,43.31
2023-03-15T12:39:38.167Z,41.59
2023-03-15T12:42:05.258Z,41.50
2023-03-15T12:44:31.853Z,39.92
2023-03-15T12:47:02.628Z,42.24
2023-03-15T12:49:30.586Z,40.69
2023-03-15T12:52:01.549Z,39.32
2023-03-15T12:54:34.865Z,40.48
2023-03-15T12:57:04.183Z,40.40
2023-03-15T12:59:54.703Z,40.81
2023-03-15T13:02:42.699Z,40.41
2023-03-15T13:05:10.466Z,38.27
2023-03-15T13:07:58.094Z,37.46
2023-03-15T13:10:54.586Z,38.01
2023-03-15T13:13:45.045Z,37.95
2023-03-15T13:16:30.990Z,38.92
2023-03-15T13:19:19.180Z,37.44
2023-03-15T13:22:04.575Z,38.10
2023-03-15T13:24:34.030Z,39.27
2023-03-15T13:27:23.254Z,42.82
2023-03-15T13:29:50.485Z,42.91
2023-03-15T13:32:21.982Z,45.16
2023-03-15T13:34:49.123Z,45.89
2023-03-15T13:37:25.749Z,45.54
2023-03-15T13:39:56.024Z,47.78
2023-03-15T13:42:24.552Z,49.00
2023-03-15T13:45:23.570Z,47.83
2023-03-15T13:47:50.019Z,48.19
2023-03-15T13:50:19.077Z,49.01
2023-03-15T13:52:46.939Z,49.23
2023-03-15T13:55:15.927Z,49.99
2023-03-15T13:57:43.009Z,49.37
2023-03-15T14:00:19.081Z,48.38
2023-03-15T14:03:02.251Z,47.49
2023-03-15T14:05:36.543Z,48.70
2023-03-15T14:08:06.024Z,51.10
2023-03-15T14:10:38.476Z,49.87
2023-03-15T14:13:32.388Z,50.40
2023-03-15T14:16:07.307Z,51.71
2023-03-15T14:18:39.095Z,50.91
2023-03-15T14:21:07.159Z,48.75
2023-03-15T14:23:40.594Z,48.38
2023-03-15T14:26:22.832Z,47.56
2023-03-15T14:28:56.878Z,48.62
2023-03-15T14:31:26.457Z,47.47
2023-03-15T14:34:23.787Z,47.13
2023-03-15T14:36:52.867Z,44.83
2023-03-15T14:39:24.173Z,45.41
2023-03-15T14:41:50.579Z,46.01
2023-03-15T14:44:17.104Z,45.53
2023-03-15T14:46:43.902Z,48.22
2023-03-15T14:49:19.849Z,47.80
2023-03-15T14:51:47.225Z,47.63
2023-03-15T14:54:13.678Z,48.12
2023-03-15T14:56:41.280Z,49.67
2023-03-15T14:59:12.310Z,50.49
2023-03-15T15:01:46.494Z,49.62
2023-03-15T15:04:14.371Z,51.71
2023-03-15T15:06:52.765Z,50.41
2023-03-15T15:09:23.776Z,49.31
2023-03-15T15:11:51.570Z,49.62
2023-03-15T15:14:18.728Z,48.91
2023-03-15T15:16:45.852Z,48.74
2023-03-15T15:19:12.730Z,47.82
2023-03-15T15:21:39.811Z,48.54
2023-03-15T15:24:18.465Z,49.11
2023-03-15T15:26:45.046Z,49.75
2023-03-15T15:29:16.162Z,48.65
2023-03-15T15:31:44.047Z,48.55
2023-03-15T15:34:12.021Z,46.92
2023-03-15T15:36:41.033Z,46.31
2023-03-15T15:39:21.890Z,45.87
2023-03-15T15:41:49.025Z,46.02
2023-03-15T15:44:19.165Z,45.97
2023-03-15T15:46:45.676Z,46.13
2023-03-15T15:49:12.483Z,45.55
2023-03-15T15:51:42.256Z,45.61
2023-03-15T15:54:18.692Z,45.63
2023-03-15T15:56:51.694Z,44.48
2023-03-15T15:59:19.266Z,45.24
2023-03-15T16:01:59.685Z,45.94
2023-03-15T16:04:26.814Z,44.97
2023-03-15T16:06:59.383Z,45.21
2023-03-15T16:09:28.466Z,45.71
2023-03-15T16:11:55.258Z,44.40
2023-03-15T16:14:21.769Z,45.15
2023-03-15T16:16:48.532Z,44.24
2023-03-15T16:19:14.970Z,45.69
2023-03-15T16:21:45.131Z,46.35
2023-03-15T16:24:16.637Z,45.27
2023-03-15T16:26:45.232Z,45.67
2023-03-15T16:29:14.847Z,45.43
2023-03-15T16:31:41.948Z,44.75
2023-03-15T16:34:12.832Z,43.75
2023-03-15T16:36:43.465Z,45.12
2023-03-15T16:39:12.789Z,44.71
2023-03-15T16:41:40.195Z,44.44
2023-03-15T16:44:17.946Z,43.42
2023-03-15T16:46:44.778Z,43.66
2023-03-15T16:49:12.059Z,43.31
2023-03-15T16:51:44.185Z,45.06
2023-03-15T16:54:21.769Z,45.60
2023-03-15T16:56:51.267Z,44.18
2023-03-15T16:59:18.126Z,44.34
2023-03-15T17:01:46.033Z,44.18
2023-03-15T17:04:14.672Z,45.22
2023-03-15T17:06:42.623Z,44.82
2023-03-15T17:09:13.923Z,45.91
2023-03-15T17:11:42.891Z,45.57
2023-03-15T17:14:15.888Z,47.10
2023-03-15T17:16:42.399Z,46.39
2023-03-15T17:19:13.648Z,45.75
2023-03-15T17:21:41.432Z,45.64
2023-03-15T17:24:11.964Z,46.57
2023-03-15T17:26:40.129Z,45.96
2023-03-15T17:29:07.288Z,46.76
2023-03-15T17:31:35.377Z,46.17
2023-03-15T17:34:02.100Z,46.02
2023-03-15T17:36:37.339Z,45.39
2023-03-15T17:39:05.332Z,45.40
2023-03-15T17:41:34.804Z,46.51
2023-03-15T17:44:01.641Z,46.42
2023-03-15T17:46:30.130Z,46.26
2023-03-15T17:48:58.077Z,46.91
2023-03-15T17:51:28.230Z,46.64
2023-03-15T17:53:54.954Z,47.03
2023-03-15T17:56:22.854Z,46.81
2023-03-15T17:58:49.624Z,47.83
2023-03-15T18:01:19.595Z,48.09
2023-03-15T18:03:47.572Z,48.12
2023-03-15T18:06:14.201Z,49.92
2023-03-15T18:08:40.727Z,50.81
2023-03-15T18:11:16.606Z,50.99
2023-03-15T18:13:43.545Z,50.34
2023-03-15T18:16:14.512Z,50.49
2023-03-15T18:18:42.090Z,50.29
2023-03-15T18:21:18.050Z,50.28
2023-03-15T18:23:45.220Z,50.86
2023-03-15T18:26:12.993Z,50.08
2023-03-15T18:28:40.312Z,50.16
2023-03-15T18:31:25.929Z,50.97
2023-03-15T18:33:54.008Z,51.45
2023-03-15T18:36:20.889Z,51.70
2023-03-15T18:38:47.525Z,51.46
2023-03-15T18:41:23.565Z,51.86
2023-03-15T18:43:51.557Z,52.44
2023-03-15T18:46:20.215Z,51.33
2023-03-15T18:48:47.728Z,51.50
2023-03-15T18:51:15.400Z,51.30
2023-03-15T18:53:43.186Z,51.42
2023-03-15T18:56:19.401Z,50.89
2023-03-15T18:58:50.788Z,51.83
2023-03-15T19:01:19.392Z,52.05
2023-03-15T19:03:46.010Z,51.77
2023-03-15T19:06:13.201Z,51.84
2023-03-15T19:08:40.079Z,52.98
2023-03-15T19:11:08.429Z,53.21
2023-03-15T19:13:35.139Z,53.36
2023-03-15T19:16:01.833Z,52.94
2023-03-15T19:18:28.816Z,52.69
2023-03-15T19:20:55.359Z,52.75
2023-03-15T19:23:21.853Z,53.05
2023-03-15T19:25:48.532Z,52.59
2023-03-15T19:28:15.309Z,52.80
2023-03-15T19:30:42.312Z,53.80
2023-03-15T19:33:09.173Z,52.94
2023-03-15T19:35:35.917Z,53.33
2023-03-15T19:38:02.669Z,53.40
2023-03-15T19:40:29.133Z,54.12
2023-03-15T19:42:55.655Z,54.39
2023-03-15T19:45:22.105Z,54.52
2023-03-15T19:47:48.536Z,55.08
2023-03-15T19:50:15.413Z,56.25
2023-03-15T19:52:46.128Z,55.67
2023-03-15T19:55:17.875Z,56.24
2023-03-15T19:57:44.926Z,56.62
2023-03-15T20:00:14.267Z,56.64
2023-03-15T20:02:43.770Z,56.34
2023-03-15T20:05:12.452Z,56.70
2023-03-15T20:07:39.134Z,56.19
2023-03-15T20:10:08.439Z,55.39
2023-03-15T20:12:36.213Z,55.38
2023-03-15T20:15:03.373Z,55.36
2023-03-15T20:17:30.512Z,55.52
2023-03-15T20:19:56.954Z,55.93
2023-03-15T20:22:23.606Z,55.51
2023-03-15T20:24:50.551Z,54.81
2023-03-15T20:27:17.001Z,55.06
2023-03-15T20:29:43.502Z,55.29
2023-03-15T20:32:10.602Z,54.88
2023-03-15T20:34:39.469Z,55.16
2023-03-15T20:37:06.661Z,55.66
2023-03-15T20:39:33.377Z,55.56
2023-03-15T20:41:59.758Z,55.33
2023-03-15T20:44:26.306Z,55.35
2023-03-15T20:46:56.598Z,55.32
2023-03-15T20:49:23.097Z,55.15
2023-03-15T20:51:49.539Z,55.24
2023-03-15T20:54:16.023Z,54.97
2023-03-15T20:56:42.575Z,55.83
2023-03-15T20:59:08.994Z,55.45
2023-03-15T21:01:35.498Z,55.99
2023-03-15T21:04:02.013Z,55.99
2023-03-15T21:06:28.421Z,56.94
2023-03-15T21:08:54.880Z,56.88
2023-03-15T21:11:21.319Z,56.54
2023-03-15T21:13:47.781Z,56.04
2023-03-15T21:16:14.350Z,56.18
2023-03-15T21:18:44.713Z,55.97
2023-03-15T21:21:11.644Z,56.78
2023-03-15T21:23:38.074Z,56.20
2023-03-15T21:26:10.466Z,56.75
2023-03-15T21:28:37.396Z,57.34
2023-03-15T21:31:04.027Z,56.69
2023-03-15T21:33:31.343Z,56.31
2023-03-15T21:35:59.384Z,57.32
2023-03-15T21:38:31.363Z,56.25
2023-03-15T21:40:59.499Z,56.05
2023-03-15T21:43:33.031Z,56.40
2023-03-15T21:46:05.516Z,57.00
2023-03-15T21:48:32.312Z,56.13
2023-03-15T21:50:58.858Z,56.07
2023-03-15T21:53:25.303Z,56.07
2023-03-15T21:55:55.320Z,57.33
2023-03-15T21:58:21.836Z,56.43
2023-03-15T22:00:48.410Z,55.98
2023-03-15T22:03:16.706Z,56.95
2023-03-15T22:05:46.649Z,56.53
2023-03-15T22:08:13.144Z,56.41
2023-03-15T22:10:39.648Z,57.49
2023-03-15T22:13:06.086Z,56.97
2023-03-15T22:15:33.871Z,57.27
2023-03-15T22:18:00.483Z,56.87
2023-03-15T22:20:27.188Z,56.60
2023-03-15T22:22:53.829Z,56.57
2023-03-15T22:25:20.459Z,55.85
2023-03-15T22:27:47.089Z,57.16
2023-03-15T22:30:14.595Z,57.37
2023-03-15T22:32:44.257Z,56.32
2023-03-15T22:35:12.770Z,56.64
2023-03-15T22:37:39.680Z,56.81
2023-03-15T22:40:06.954Z,57.63
2023-03-15T22:42:33.373Z,58.03
2023-03-15T22:44:59.799Z,57.74
2023-03-15T22:47:26.372Z,57.55
2023-03-15T22:49:54.593Z,58.75
2023-03-15T22:52:21.151Z,58.92
2023-03-15T22:54:47.608Z,58.94
2023-03-15T22:57:14.044Z,58.66
2023-03-15T22:59:40.540Z,58.75
2023-03-15T23:02:07.183Z,57.22
2023-03-15T23:04:33.945Z,57.22
2023-03-15T23:07:01.650Z,57.61
2023-03-15T23:09:28.189Z,58.23
2023-03-15T23:11:54.597Z,59.12
2023-03-15T23:14:21.488Z,58.69
2023-03-15T23:16:47.965Z,58.29
2023-03-15T23:19:15.018Z,58.29
2023-03-15T23:21:41.426Z,58.21
2023-03-15T23:24:08.602Z,57.90
2023-03-15T23:26:37.551Z,57.89
2023-03-15T23:29:10.634Z,58.16
2023-03-15T23:31:41.708Z,58.62
2023-03-15T23:34:08.680Z,58.01
2023-03-15T23:36:35.823Z,58.48
2023-03-15T23:39:02.312Z,58.78
2023-03-15T23:41:29.090Z,59.28
2023-03-15T23:43:55.545Z,59.72
2023-03-15T23:46:24.227Z,58.79
2023-03-15T23:48:52.276Z,59.17
2023-03-15T23:51:19.426Z,59.07
2023-03-15T23:53:45.822Z,59.13
2023-03-15T23:56:12.268Z,58.87
2023-03-15T23:58:38.722Z,58.93
